Time,TemperatureF,DewpointF,PressureIn,WindDirection,WindDirectionDegrees,WindSpeedMPH,WindSpeedGustMPH,Humidity,HourlyPrecipIn,Conditions,Clouds,dailyrainin,SoftwareType,DateUTC
2013-02-15 00:11:00,18.6,13.0,30.37,ESE,115,0.0,0.0,77,0.00,,,0.00,weatherlink.com 1.10,2013-02-15 07:11:00,
2013-02-15 00:26:00,18.3,13.0,30.37,ESE,116,0.0,0.0,81,0.00,,,0.00,weatherlink.com 1.10,2013-02-15 07:26:00,
2013-02-15 00:41:00,18.7,14.0,30.38,ESE,116,0.0,0.0,81,0.00,,,0.00,weatherlink.com 1.10,2013-02-15 07:41:00,
2013-02-15 00:56:00,18.6,14.0,30.38,ESE,115,0.0,0.0,82,0.00,,,0.00,weatherlink.com 1.10,2013-02-15 07:56:00,
2013-02-15 01:11:00,18.6,14.0,30.39,ESE,115,0.0,1.0,82,0.00,,,0.00,weatherlink.com 1.10,2013-02-15 08:11:00,
2013-02-15 01:26:00,17.5,13.0,30.39,ESE,116,0.0,1.0,83,0.00,,,0.00,weatherlink.com 1.10,2013-02-15 08:26:00,
2013-02-15 01:41:00,17.2,14.0,30.39,NNW,340,0.0,0.0,85,0.00,,,0.00,weatherlink.com 1.10,2013-02-15 08:41:00,
2013-02-15 01:56:00,17.1,13.0,30.39,West,270,0.0,1.0,85,0.00,,,0.00,weatherlink.com 1.10,2013-02-15 08:56:00,
2013-02-15 02:11:00,17.1,14.0,30.39,West,277,0.0,2.0,86,0.00,,,0.00,weatherlink.com 1.10,2013-02-15 09:11:00,
2013-02-15 02:26:00,17.0,14.0,30.40,WNW,295,0.0,1.0,86,0.00,,,0.00,weatherlink.com 1.10,2013-02-15 09:26:00,
2013-02-15 02:41:00,17.0,13.0,30.40,West,274,0.0,1.0,85,0.00,,,0.00,weatherlink.com 1.10,2013-02-15 09:41:00,
2013-02-15 02:56:00,16.6,12.0,30.39,West,274,0.0,0.0,83,0.00,,,0.00,weatherlink.com 1.10,2013-02-15 09:56:00,
2013-02-15 03:11:00,15.7,12.0,30.39,West,274,0.0,0.0,85,0.00,,,0.00,weatherlink.com 1.10,2013-02-15 10:11:00,
2013-02-15 03:26:00,15.7,12.0,30.39,WNW,283,0.0,1.0,84,0.00,,,0.00,weatherlink.com 1.10,2013-02-15 10:26:00,
2013-02-15 03:41:00,15.0,11.0,30.39,SW,215,0.0,1.0,84,0.00,,,0.00,weatherlink.com 1.10,2013-02-15 10:41:00,
2013-02-15 03:56:00,14.0,11.0,30.39,SW,215,0.0,0.0,86,0.00,,,0.00,weatherlink.com 1.10,2013-02-15 10:56:00,
2013-02-15 04:11:00,13.0,10.0,30.40,SW,215,0.0,0.0,86,0.00,,,0.00,weatherlink.com 1.10,2013-02-15 11:11:00,
2013-02-15 04:26:00,12.9,10.0,30.40,SW,215,0.0,1.0,88,0.00,,,0.00,weatherlink.com 1.10,2013-02-15 11:26:00,
2013-02-15 04:41:00,13.0,10.0,30.40,SW,215,0.0,1.0,89,0.00,,,0.00,weatherlink.com 1.10,2013-02-15 11:41:00,
2013-02-15 04:56:00,12.7,10.0,30.40,SSW,197,0.0,1.0,89,0.00,,,0.00,weatherlink.com 1.10,2013-02-15 11:56:00,
2013-02-15 05:11:00,13.2,10.0,30.39,SSW,205,0.0,1.0,87,0.00,,,0.00,weatherlink.com 1.10,2013-02-15 12:11:00,
2013-02-15 05:26:00,14.0,10.0,30.39,SSW,207,0.0,1.0,85,0.00,,,0.00,weatherlink.com 1.10,2013-02-15 12:26:00,
2013-02-15 05:41:00,13.9,10.0,30.39,SSE,149,0.0,1.0,85,0.00,,,0.00,weatherlink.com 1.10,2013-02-15 12:41:00,
2013-02-15 05:56:00,14.3,11.0,30.40,SSW,197,0.0,3.0,85,0.00,,,0.00,weatherlink.com 1.10,2013-02-15 12:56:00,
2013-02-15 06:11:00,14.5,11.0,30.42,SE,138,0.0,1.0,84,0.00,,,0.00,weatherlink.com 1.10,2013-02-15 13:11:00,
2013-02-15 06:26:00,14.5,11.0,30.43,SE,138,0.0,0.0,85,0.00,,,0.00,weatherlink.com 1.10,2013-02-15 13:26:00,
2013-02-15 06:43:00,15.1,11.0,30.44,West,267,0.0,1.0,84,0.00,,,0.00,weatherlink.com 1.10,2013-02-15 13:43:00,
2013-02-15 06:57:00,15.6,11.0,30.44,WNW,295,0.0,2.0,83,0.00,,,0.00,weatherlink.com 1.10,2013-02-15 13:57:00,
2013-02-15 07:12:00,16.1,12.0,30.45,NW,314,0.0,2.0,83,0.00,,,0.00,weatherlink.com 1.10,2013-02-15 14:12:00,
2013-02-15 07:27:00,15.6,12.0,30.46,NW,322,0.0,0.0,84,0.00,,,0.00,weatherlink.com 1.10,2013-02-15 14:27:00,
2013-02-15 07:42:00,16.2,13.0,30.46,WSW,238,0.0,1.0,85,0.00,,,0.00,weatherlink.com 1.10,2013-02-15 14:42:00,
2013-02-15 07:57:00,17.0,13.0,30.47,West,260,0.0,1.0,83,0.00,,,0.00,weatherlink.com 1.10,2013-02-15 14:57:00,
2013-02-15 08:12:00,18.8,14.0,30.47,SW,224,0.0,1.0,80,0.00,,,0.00,weatherlink.com 1.10,2013-02-15 15:12:00,
2013-02-15 08:27:00,19.9,14.0,30.47,SW,215,0.0,1.0,79,0.00,,,0.00,weatherlink.com 1.10,2013-02-15 15:27:00,
2013-02-15 08:42:00,20.1,14.0,30.47,SSW,205,0.0,3.0,77,0.00,,,0.00,weatherlink.com 1.10,2013-02-15 15:42:00,
2013-02-15 08:57:00,20.5,14.0,30.48,SSW,197,0.0,3.0,75,0.00,,,0.00,weatherlink.com 1.10,2013-02-15 15:57:00,
2013-02-15 09:12:00,21.6,15.0,30.47,SE,132,0.0,1.0,74,0.00,,,0.00,weatherlink.com 1.10,2013-02-15 16:12:00,
2013-02-15 09:27:00,24.3,16.0,30.47,SE,128,2.0,2.0,71,0.00,,,0.00,weatherlink.com 1.10,2013-02-15 16:27:00,
2013-02-15 09:42:00,27.3,16.0,30.47,SSW,210,1.0,4.0,63,0.00,,,0.00,weatherlink.com 1.10,2013-02-15 16:42:00,
2013-02-15 09:57:00,28.5,16.0,30.47,SSW,197,3.0,5.0,60,0.00,,,0.00,weatherlink.com 1.10,2013-02-15 16:57:00,
2013-02-15 10:12:00,30.0,17.0,30.47,SSW,205,1.0,5.0,59,0.00,,,0.00,weatherlink.com 1.10,2013-02-15 17:12:00,
2013-02-15 10:27:00,31.7,17.0,30.46,SSW,195,2.0,6.0,56,0.00,,,0.00,weatherlink.com 1.10,2013-02-15 17:27:00,
2013-02-15 10:42:00,31.3,17.0,30.46,SSW,204,2.0,7.0,55,0.00,,,0.00,weatherlink.com 1.10,2013-02-15 17:42:00,
2013-02-15 10:57:00,33.3,20.0,30.45,SE,133,1.0,5.0,58,0.01,,,0.01,weatherlink.com 1.10,2013-02-15 17:57:00,
2013-02-15 11:12:00,33.5,17.0,30.45,SW,233,0.0,4.0,52,0.01,,,0.01,weatherlink.com 1.10,2013-02-15 18:12:00,
2013-02-15 11:27:00,34.8,17.0,30.44,ENE,65,1.0,4.0,48,0.02,,,0.02,weatherlink.com 1.10,2013-02-15 18:27:00,
2013-02-15 11:42:00,35.3,17.0,30.43,SW,231,0.0,3.0,47,0.02,,,0.02,weatherlink.com 1.10,2013-02-15 18:42:00,
2013-02-15 11:57:00,34.7,17.0,30.43,East,86,4.0,5.0,48,0.02,,,0.03,weatherlink.com 1.10,2013-02-15 18:57:00,
2013-02-15 12:12:00,34.3,16.0,30.43,NE,46,2.0,5.0,48,0.02,,,0.03,weatherlink.com 1.10,2013-02-15 19:12:00,
2013-02-15 12:27:00,35.2,16.0,30.43,ENE,63,4.0,4.0,46,0.01,,,0.03,weatherlink.com 1.10,2013-02-15 19:27:00,
2013-02-15 12:42:00,36.3,16.0,30.43,NE,46,2.0,6.0,44,0.01,,,0.03,weatherlink.com 1.10,2013-02-15 19:42:00,
2013-02-15 12:57:00,36.7,17.0,30.43,ENE,57,1.0,8.0,44,0.00,,,0.03,weatherlink.com 1.10,2013-02-15 19:57:00,
2013-02-15 13:12:00,36.8,16.0,30.43,ENE,72,2.0,7.0,42,0.00,,,0.03,weatherlink.com 1.10,2013-02-15 20:12:00,
2013-02-15 13:27:00,37.5,14.0,30.43,North,6,4.0,6.0,38,0.00,,,0.03,weatherlink.com 1.10,2013-02-15 20:27:00,
2013-02-15 13:43:00,38.5,14.0,30.43,North,360,2.0,11.0,36,0.00,,,0.03,weatherlink.com 1.10,2013-02-15 20:43:00,
2013-02-15 13:58:00,37.9,13.0,30.43,East,79,3.0,7.0,36,0.00,,,0.03,weatherlink.com 1.10,2013-02-15 20:58:00,
2013-02-15 14:13:00,36.7,12.0,30.43,East,89,1.0,8.0,36,0.00,,,0.03,weatherlink.com 1.10,2013-02-15 21:13:00,
2013-02-15 14:28:00,36.8,12.0,30.43,ENE,76,6.0,10.0,36,0.00,,,0.03,weatherlink.com 1.10,2013-02-15 21:28:00,
2013-02-15 14:43:00,38.2,13.0,30.43,East,101,2.0,8.0,35,0.00,,,0.03,weatherlink.com 1.10,2013-02-15 21:43:00,
2013-02-15 14:58:00,39.6,14.0,30.43,ENE,78,3.0,10.0,35,0.00,,,0.03,weatherlink.com 1.10,2013-02-15 21:58:00,
2013-02-15 15:13:00,39.0,12.0,30.43,East,98,5.0,10.0,33,0.00,,,0.03,weatherlink.com 1.10,2013-02-15 22:13:00,
2013-02-15 15:28:00,38.0,12.0,30.43,NNE,31,4.0,6.0,35,0.00,,,0.03,weatherlink.com 1.10,2013-02-15 22:28:00,
2013-02-15 15:43:00,38.0,11.0,30.43,ENE,77,3.0,7.0,33,0.00,,,0.03,weatherlink.com 1.10,2013-02-15 22:43:00,
2013-02-15 15:58:00,38.4,11.0,30.43,East,81,2.0,6.0,33,0.00,,,0.03,weatherlink.com 1.10,2013-02-15 22:58:00,
2013-02-15 16:13:00,38.0,12.0,30.44,WNW,293,1.0,4.0,34,0.00,,,0.03,weatherlink.com 1.10,2013-02-15 23:13:00,
2013-02-15 16:28:00,36.4,11.0,30.44,ENE,66,2.0,10.0,35,0.00,,,0.03,weatherlink.com 1.10,2013-02-15 23:28:00,
2013-02-15 16:43:00,35.4,13.0,30.45,ENE,67,3.0,7.0,40,0.00,,,0.03,weatherlink.com 1.10,2013-02-15 23:43:00,
2013-02-15 16:58:00,34.9,12.0,30.44,ENE,63,2.0,8.0,39,0.00,,,0.03,weatherlink.com 1.10,2013-02-15 23:58:00,
2013-02-15 17:13:00,33.7,16.0,30.44,SE,125,3.0,8.0,48,0.00,,,0.03,weatherlink.com 1.10,2013-02-16 00:13:00,
2013-02-15 17:28:00,32.1,16.0,30.45,ENE,71,2.0,6.0,51,0.00,,,0.03,weatherlink.com 1.10,2013-02-16 00:28:00,
2013-02-15 17:43:00,30.9,15.0,30.44,ESE,121,0.0,4.0,53,0.00,,,0.03,weatherlink.com 1.10,2013-02-16 00:43:00,
2013-02-15 17:58:00,29.8,15.0,30.45,ENE,67,0.0,1.0,55,0.00,,,0.03,weatherlink.com 1.10,2013-02-16 00:58:00,
2013-02-15 18:13:00,28.4,16.0,30.45,SE,127,0.0,1.0,59,0.00,,,0.03,weatherlink.com 1.10,2013-02-16 01:13:00,
2013-02-15 18:28:00,27.4,15.0,30.45,SE,127,0.0,0.0,61,0.00,,,0.03,weatherlink.com 1.10,2013-02-16 01:28:00,
2013-02-15 18:43:00,25.8,15.0,30.45,SE,127,0.0,0.0,64,0.00,,,0.03,weatherlink.com 1.10,2013-02-16 01:43:00,
2013-02-15 18:58:00,25.2,15.0,30.45,SE,127,0.0,0.0,66,0.00,,,0.03,weatherlink.com 1.10,2013-02-16 01:58:00,
2013-02-15 19:13:00,24.7,15.0,30.45,SE,127,0.0,0.0,68,0.00,,,0.03,weatherlink.com 1.10,2013-02-16 02:13:00,
2013-02-15 19:28:00,24.5,16.0,30.45,SE,124,0.0,1.0,70,0.00,,,0.03,weatherlink.com 1.10,2013-02-16 02:28:00,
2013-02-15 19:43:00,25.6,16.0,30.44,SE,139,0.0,1.0,67,0.00,,,0.03,weatherlink.com 1.10,2013-02-16 02:43:00,
2013-02-15 19:58:00,24.8,15.0,30.43,SE,140,0.0,0.0,67,0.00,,,0.03,weatherlink.com 1.10,2013-02-16 02:58:00,
2013-02-15 20:13:00,24.6,16.0,30.43,SE,140,0.0,0.0,69,0.00,,,0.03,weatherlink.com 1.10,2013-02-16 03:13:00,
2013-02-15 20:28:00,24.2,16.0,30.43,SE,140,0.0,0.0,70,0.00,,,0.03,weatherlink.com 1.10,2013-02-16 03:28:00,
2013-02-15 20:43:00,24.2,16.0,30.42,SSW,207,0.0,1.0,70,0.00,,,0.03,weatherlink.com 1.10,2013-02-16 03:43:00,
2013-02-15 20:58:00,24.1,16.0,30.42,SW,218,1.0,1.0,72,0.00,,,0.03,weatherlink.com 1.10,2013-02-16 03:58:00,
2013-02-15 21:13:00,23.9,17.0,30.41,SSW,198,0.0,3.0,74,0.00,,,0.03,weatherlink.com 1.10,2013-02-16 04:13:00,
2013-02-15 21:28:00,24.6,17.0,30.41,SSW,203,0.0,5.0,73,0.00,,,0.03,weatherlink.com 1.10,2013-02-16 04:28:00,
2013-02-15 21:43:00,24.6,17.0,30.41,SW,220,0.0,4.0,72,0.00,,,0.03,weatherlink.com 1.10,2013-02-16 04:43:00,
2013-02-15 21:58:00,24.4,16.0,30.40,SSW,210,1.0,4.0,71,0.00,,,0.03,weatherlink.com 1.10,2013-02-16 04:58:00,
2013-02-15 22:13:00,24.6,16.0,30.39,SSW,207,1.0,5.0,70,0.00,,,0.03,weatherlink.com 1.10,2013-02-16 05:13:00,
2013-02-15 22:28:00,24.5,16.0,30.39,SW,224,0.0,4.0,70,0.00,,,0.03,weatherlink.com 1.10,2013-02-16 05:28:00,
2013-02-15 22:43:00,24.4,16.0,30.39,SSW,211,1.0,3.0,69,0.00,,,0.03,weatherlink.com 1.10,2013-02-16 05:43:00,
2013-02-15 22:58:00,24.4,15.0,30.39,SSW,204,2.0,4.0,68,0.00,,,0.03,weatherlink.com 1.10,2013-02-16 05:58:00,
2013-02-15 23:13:00,24.3,15.0,30.38,SSW,193,2.0,4.0,68,0.00,,,0.03,weatherlink.com 1.10,2013-02-16 06:13:00,
2013-02-15 23:28:00,24.5,15.0,30.38,SW,219,2.0,5.0,66,0.00,,,0.03,weatherlink.com 1.10,2013-02-16 06:28:00,
2013-02-15 23:43:00,24.7,14.0,30.37,SSW,210,3.0,7.0,64,0.00,,,0.03,weatherlink.com 1.10,2013-02-16 06:43:00,
2013-02-15 23:58:00,24.8,14.0,30.36,SSW,208,3.0,7.0,63,0.00,,,0.03,weatherlink.com 1.10,2013-02-16 06:58:00,